sensor_id;sensor_type;location;lat;lon;timestamp;P1;durP1;ratioP1;P2;durP2;ratioP2
68275;SDS011;55106;51.438;-0.098;2022-08-01T00:01:08;5.83;;;2.70;;
68275;SDS011;55106;51.438;-0.098;2022-08-01T00:03:33;5.38;;;2.65;;
68275;SDS011;55106;51.438;-0.098;2022-08-01T00:05:59;6.37;;;3.30;;
68275;SDS011;55106;51.438;-0.098;2022-08-01T00:08:24;6.20;;;2.63;;
68275;SDS011;55106;51.438;-0.098;2022-08-01T00:10:50;5.00;;;2.50;;
68275;SDS011;55106;51.438;-0.098;2022-08-01T00:13:15;6.83;;;2.70;;
68275;SDS011;55106;51.438;-0.098;2022-08-01T00:15:41;5.83;;;2.73;;
68275;SDS011;55106;51.438;-0.098;2022-08-01T00:18:06;5.57;;;2.27;;
68275;SDS011;55106;51.438;-0.098;2022-08-01T00:20:31;5.47;;;2.70;;
68275;SDS011;55106;51.438;-0.098;2022-08-01T00:22:57;5.40;;;2.47;;
68275;SDS011;55106;51.438;-0.098;2022-08-01T00:25:22;6.50;;;2.47;;
68275;SDS011;55106;51.438;-0.098;2022-08-01T00:27:48;6.50;;;2.50;;
68275;SDS011;55106;51.438;-0.098;2022-08-01T00:30:13;5.40;;;2.53;;
68275;SDS011;55106;51.438;-0.098;2022-08-01T00:32:39;6.03;;;2.88;;
68275;SDS011;55106;51.438;-0.098;2022-08-01T00:35:04;5.20;;;2.30;;
68275;SDS011;55106;51.438;-0.098;2022-08-01T00:37:31;6.10;;;2.50;;
68275;SDS011;55106;51.438;-0.098;2022-08-01T00:39:56;5.77;;;2.63;;
68275;SDS011;55106;51.438;-0.098;2022-08-01T00:42:22;5.30;;;2.30;;
68275;SDS011;55106;51.438;-0.098;2022-08-01T00:44:47;6.53;;;2.27;;
68275;SDS011;55106;51.438;-0.098;2022-08-01T00:47:13;5.80;;;2.38;;
68275;SDS011;55106;51.438;-0.098;2022-08-01T00:49:38;6.13;;;2.50;;
68275;SDS011;55106;51.438;-0.098;2022-08-01T00:52:04;6.23;;;2.67;;
68275;SDS011;55106;51.438;-0.098;2022-08-01T00:54:31;5.82;;;2.60;;
68275;SDS011;55106;51.438;-0.098;2022-08-01T00:56:56;5.72;;;2.20;;
68275;SDS011;55106;51.438;-0.098;2022-08-01T00:59:23;5.43;;;2.20;;
68275;SDS011;55106;51.438;-0.098;2022-08-01T01:01:49;5.70;;;2.50;;
68275;SDS011;55106;51.438;-0.098;2022-08-01T01:04:15;5.88;;;2.80;;
68275;SDS011;55106;51.438;-0.098;2022-08-01T01:06:45;5.95;;;2.70;;
68275;SDS011;55106;51.438;-0.098;2022-08-01T01:09:17;6.68;;;2.30;;
68275;SDS011;55106;51.438;-0.098;2022-08-01T01:14:33;5.88;;;3.13;;
68275;SDS011;55106;51.438;-0.098;2022-08-01T01:17:05;6.88;;;2.70;;
68275;SDS011;55106;51.438;-0.098;2022-08-01T01:19:33;7.88;;;3.10;;
68275;SDS011;55106;51.438;-0.098;2022-08-01T01:24:55;5.83;;;2.50;;
68275;SDS011;55106;51.438;-0.098;2022-08-01T01:30:28;6.93;;;2.35;;
68275;SDS011;55106;51.438;-0.098;2022-08-01T01:32:56;5.45;;;2.95;;
68275;SDS011;55106;51.438;-0.098;2022-08-01T01:35:27;6.88;;;2.72;;
68275;SDS011;55106;51.438;-0.098;2022-08-01T01:37:58;6.00;;;2.40;;
68275;SDS011;55106;51.438;-0.098;2022-08-01T01:40:29;5.82;;;2.65;;
68275;SDS011;55106;51.438;-0.098;2022-08-01T01:42:56;5.07;;;2.25;;
68275;SDS011;55106;51.438;-0.098;2022-08-01T01:45:25;5.38;;;2.42;;
68275;SDS011;55106;51.438;-0.098;2022-08-01T01:47:52;4.97;;;2.20;;
68275;SDS011;55106;51.438;-0.098;2022-08-01T01:50:19;6.47;;;2.90;;
68275;SDS011;55106;51.438;-0.098;2022-08-01T01:52:46;6.15;;;2.47;;
68275;SDS011;55106;51.438;-0.098;2022-08-01T01:55:12;5.85;;;2.30;;
68275;SDS011;55106;51.438;-0.098;2022-08-01T01:57:40;5.78;;;2.10;;
68275;SDS011;55106;51.438;-0.098;2022-08-01T02:00:08;6.95;;;2.33;;
68275;SDS011;55106;51.438;-0.098;2022-08-01T02:02:36;5.40;;;1.87;;
68275;SDS011;55106;51.438;-0.098;2022-08-01T02:05:02;6.57;;;2.08;;
68275;SDS011;55106;51.438;-0.098;2022-08-01T02:07:30;5.10;;;2.25;;
68275;SDS011;55106;51.438;-0.098;2022-08-01T02:09:57;5.70;;;2.42;;
68275;SDS011;55106;51.438;-0.098;2022-08-01T02:12:24;5.20;;;2.47;;
68275;SDS011;55106;51.438;-0.098;2022-08-01T02:14:50;5.23;;;2.33;;
68275;SDS011;55106;51.438;-0.098;2022-08-01T02:17:19;5.68;;;2.30;;
68275;SDS011;55106;51.438;-0.098;2022-08-01T02:19:46;4.72;;;2.30;;
68275;SDS011;55106;51.438;-0.098;2022-08-01T02:22:16;5.97;;;2.47;;
68275;SDS011;55106;51.438;-0.098;2022-08-01T02:24:55;4.90;;;2.25;;
68275;SDS011;55106;51.438;-0.098;2022-08-01T02:27:34;6.20;;;2.43;;
68275;SDS011;55106;51.438;-0.098;2022-08-01T02:30:06;6.05;;;2.42;;
68275;SDS011;55106;51.438;-0.098;2022-08-01T02:32:38;5.32;;;2.20;;
68275;SDS011;55106;51.438;-0.098;2022-08-01T02:35:09;5.55;;;2.30;;
68275;SDS011;55106;51.438;-0.098;2022-08-01T02:37:39;5.18;;;2.28;;
68275;SDS011;55106;51.438;-0.098;2022-08-01T02:40:06;5.20;;;2.43;;
68275;SDS011;55106;51.438;-0.098;2022-08-01T02:42:34;5.60;;;2.65;;
68275;SDS011;55106;51.438;-0.098;2022-08-01T02:45:02;5.78;;;2.50;;
68275;SDS011;55106;51.438;-0.098;2022-08-01T02:47:29;6.07;;;2.30;;
68275;SDS011;55106;51.438;-0.098;2022-08-01T02:49:56;5.93;;;2.53;;
68275;SDS011;55106;51.438;-0.098;2022-08-01T02:52:24;5.23;;;2.60;;
68275;SDS011;55106;51.438;-0.098;2022-08-01T02:54:51;4.93;;;1.92;;
68275;SDS011;55106;51.438;-0.098;2022-08-01T02:57:20;6.55;;;2.33;;
68275;SDS011;55106;51.438;-0.098;2022-08-01T02:59:46;6.18;;;2.45;;
68275;SDS011;55106;51.438;-0.098;2022-08-01T03:02:14;5.00;;;2.28;;
68275;SDS011;55106;51.438;-0.098;2022-08-01T03:04:41;6.07;;;2.93;;
68275;SDS011;55106;51.438;-0.098;2022-08-01T03:07:09;6.63;;;2.22;;
68275;SDS011;55106;51.438;-0.098;2022-08-01T03:09:37;5.18;;;2.47;;
68275;SDS011;55106;51.438;-0.098;2022-08-01T03:12:06;7.35;;;2.15;;
68275;SDS011;55106;51.438;-0.098;2022-08-01T03:14:39;6.32;;;2.70;;
68275;SDS011;55106;51.438;-0.098;2022-08-01T03:17:06;6.10;;;2.33;;
68275;SDS011;55106;51.438;-0.098;2022-08-01T03:19:34;5.78;;;2.40;;
68275;SDS011;55106;51.438;-0.098;2022-08-01T03:22:02;6.80;;;2.60;;
68275;SDS011;55106;51.438;-0.098;2022-08-01T03:24:36;5.82;;;2.50;;
68275;SDS011;55106;51.438;-0.098;2022-08-01T03:27:04;5.25;;;2.22;;
68275;SDS011;55106;51.438;-0.098;2022-08-01T03:29:31;5.80;;;2.50;;
68275;SDS011;55106;51.438;-0.098;2022-08-01T03:31:59;5.60;;;2.75;;
68275;SDS011;55106;51.438;-0.098;2022-08-01T03:34:26;5.45;;;2.55;;
68275;SDS011;55106;51.438;-0.098;2022-08-01T03:39:25;7.00;;;2.60;;
68275;SDS011;55106;51.438;-0.098;2022-08-01T03:41:56;6.97;;;2.60;;
68275;SDS011;55106;51.438;-0.098;2022-08-01T03:44:27;7.32;;;2.55;;
68275;SDS011;55106;51.438;-0.098;2022-08-01T03:47:00;6.00;;;2.55;;
68275;SDS011;55106;51.438;-0.098;2022-08-01T03:49:30;7.38;;;2.90;;
68275;SDS011;55106;51.438;-0.098;2022-08-01T03:51:58;6.93;;;2.60;;
68275;SDS011;55106;51.438;-0.098;2022-08-01T03:54:28;5.87;;;2.87;;
68275;SDS011;55106;51.438;-0.098;2022-08-01T03:56:58;5.95;;;2.70;;
68275;SDS011;55106;51.438;-0.098;2022-08-01T03:59:25;6.75;;;2.90;;
68275;SDS011;55106;51.438;-0.098;2022-08-01T04:01:51;8.07;;;2.80;;
68275;SDS011;55106;51.438;-0.098;2022-08-01T04:04:17;5.45;;;2.50;;
68275;SDS011;55106;51.438;-0.098;2022-08-01T04:06:43;5.93;;;2.90;;
68275;SDS011;55106;51.438;-0.098;2022-08-01T04:09:10;5.88;;;2.45;;
68275;SDS011;55106;51.438;-0.098;2022-08-01T04:11:37;5.28;;;2.60;;
68275;SDS011;55106;51.438;-0.098;2022-08-01T04:14:03;6.27;;;2.90;;
68275;SDS011;55106;51.438;-0.098;2022-08-01T04:16:28;7.30;;;2.63;;
68275;SDS011;55106;51.438;-0.098;2022-08-01T04:18:54;8.53;;;3.17;;
68275;SDS011;55106;51.438;-0.098;2022-08-01T04:21:20;7.17;;;3.00;;
68275;SDS011;55106;51.438;-0.098;2022-08-01T04:23:48;5.82;;;2.72;;
68275;SDS011;55106;51.438;-0.098;2022-08-01T04:26:14;7.38;;;3.17;;
68275;SDS011;55106;51.438;-0.098;2022-08-01T04:28:42;7.18;;;2.83;;
68275;SDS011;55106;51.438;-0.098;2022-08-01T04:31:09;6.82;;;2.50;;
68275;SDS011;55106;51.438;-0.098;2022-08-01T04:33:37;7.53;;;3.00;;
68275;SDS011;55106;51.438;-0.098;2022-08-01T04:36:05;5.88;;;2.53;;
68275;SDS011;55106;51.438;-0.098;2022-08-01T04:38:33;5.80;;;2.90;;
68275;SDS011;55106;51.438;-0.098;2022-08-01T04:41:01;7.75;;;2.70;;
68275;SDS011;55106;51.438;-0.098;2022-08-01T04:43:27;5.45;;;2.55;;
68275;SDS011;55106;51.438;-0.098;2022-08-01T04:45:53;7.20;;;3.00;;
68275;SDS011;55106;51.438;-0.098;2022-08-01T04:48:20;7.30;;;2.90;;
68275;SDS011;55106;51.438;-0.098;2022-08-01T04:50:46;6.70;;;3.05;;
68275;SDS011;55106;51.438;-0.098;2022-08-01T04:53:13;5.33;;;2.60;;
68275;SDS011;55106;51.438;-0.098;2022-08-01T04:55:46;6.75;;;2.95;;
68275;SDS011;55106;51.438;-0.098;2022-08-01T04:58:12;7.17;;;2.90;;
68275;SDS011;55106;51.438;-0.098;2022-08-01T05:00:40;6.80;;;2.97;;
68275;SDS011;55106;51.438;-0.098;2022-08-01T05:03:06;7.90;;;2.95;;
68275;SDS011;55106;51.438;-0.098;2022-08-01T05:05:31;7.33;;;2.63;;
68275;SDS011;55106;51.438;-0.098;2022-08-01T05:07:57;5.72;;;2.40;;
68275;SDS011;55106;51.438;-0.098;2022-08-01T05:10:23;5.10;;;2.50;;
68275;SDS011;55106;51.438;-0.098;2022-08-01T05:12:48;8.33;;;2.47;;
68275;SDS011;55106;51.438;-0.098;2022-08-01T05:15:13;8.10;;;2.80;;
68275;SDS011;55106;51.438;-0.098;2022-08-01T05:17:39;6.77;;;2.83;;
68275;SDS011;55106;51.438;-0.098;2022-08-01T05:20:04;6.63;;;2.47;;
68275;SDS011;55106;51.438;-0.098;2022-08-01T05:22:33;6.43;;;3.07;;
68275;SDS011;55106;51.438;-0.098;2022-08-01T05:24:58;6.45;;;2.60;;
68275;SDS011;55106;51.438;-0.098;2022-08-01T05:27:24;6.77;;;2.83;;
68275;SDS011;55106;51.438;-0.098;2022-08-01T05:29:50;5.00;;;2.15;;
68275;SDS011;55106;51.438;-0.098;2022-08-01T05:32:16;5.97;;;2.50;;
68275;SDS011;55106;51.438;-0.098;2022-08-01T05:34:41;6.23;;;2.53;;
68275;SDS011;55106;51.438;-0.098;2022-08-01T05:37:07;6.07;;;2.70;;
68275;SDS011;55106;51.438;-0.098;2022-08-01T05:39:32;7.20;;;2.77;;
68275;SDS011;55106;51.438;-0.098;2022-08-01T05:41:58;5.40;;;2.87;;
68275;SDS011;55106;51.438;-0.098;2022-08-01T05:44:23;5.88;;;2.60;;
68275;SDS011;55106;51.438;-0.098;2022-08-01T05:46:50;5.20;;;2.35;;
68275;SDS011;55106;51.438;-0.098;2022-08-01T05:49:15;6.10;;;2.80;;
68275;SDS011;55106;51.438;-0.098;2022-08-01T05:51:41;5.38;;;2.47;;
68275;SDS011;55106;51.438;-0.098;2022-08-01T05:54:06;5.90;;;2.70;;
68275;SDS011;55106;51.438;-0.098;2022-08-01T05:56:32;6.43;;;2.50;;
68275;SDS011;55106;51.438;-0.098;2022-08-01T05:58:57;5.63;;;2.43;;
68275;SDS011;55106;51.438;-0.098;2022-08-01T06:01:23;7.20;;;2.78;;
68275;SDS011;55106;51.438;-0.098;2022-08-01T06:03:48;5.63;;;2.53;;
68275;SDS011;55106;51.438;-0.098;2022-08-01T06:06:14;8.27;;;2.70;;
68275;SDS011;55106;51.438;-0.098;2022-08-01T06:08:40;7.00;;;2.70;;
68275;SDS011;55106;51.438;-0.098;2022-08-01T06:11:05;5.90;;;2.67;;
68275;SDS011;55106;51.438;-0.098;2022-08-01T06:13:31;7.17;;;2.47;;
68275;SDS011;55106;51.438;-0.098;2022-08-01T06:15:57;6.55;;;3.00;;
68275;SDS011;55106;51.438;-0.098;2022-08-01T06:18:31;7.63;;;2.63;;
68275;SDS011;55106;51.438;-0.098;2022-08-01T06:20:56;5.95;;;3.00;;
68275;SDS011;55106;51.438;-0.098;2022-08-01T06:23:22;6.10;;;2.80;;
68275;SDS011;55106;51.438;-0.098;2022-08-01T06:25:47;6.40;;;2.60;;
68275;SDS011;55106;51.438;-0.098;2022-08-01T06:28:13;6.47;;;2.58;;
68275;SDS011;55106;51.438;-0.098;2022-08-01T06:30:39;6.63;;;2.60;;
68275;SDS011;55106;51.438;-0.098;2022-08-01T06:33:04;7.07;;;2.87;;
68275;SDS011;55106;51.438;-0.098;2022-08-01T06:35:30;6.35;;;2.72;;
68275;SDS011;55106;51.438;-0.098;2022-08-01T06:37:56;7.33;;;2.73;;
68275;SDS011;55106;51.438;-0.098;2022-08-01T06:40:22;6.55;;;2.88;;
68275;SDS011;55106;51.438;-0.098;2022-08-01T06:42:51;6.43;;;2.90;;
68275;SDS011;55106;51.438;-0.098;2022-08-01T06:45:17;5.60;;;2.92;;
68275;SDS011;55106;51.438;-0.098;2022-08-01T06:47:43;7.00;;;2.93;;
68275;SDS011;55106;51.438;-0.098;2022-08-01T06:50:10;5.68;;;2.72;;
68275;SDS011;55106;51.438;-0.098;2022-08-01T06:52:36;5.70;;;2.78;;
68275;SDS011;55106;51.438;-0.098;2022-08-01T06:55:02;6.23;;;2.90;;
68275;SDS011;55106;51.438;-0.098;2022-08-01T06:57:28;6.57;;;2.92;;
68275;SDS011;55106;51.438;-0.098;2022-08-01T06:59:54;6.57;;;2.70;;
68275;SDS011;55106;51.438;-0.098;2022-08-01T07:02:20;8.90;;;3.23;;
68275;SDS011;55106;51.438;-0.098;2022-08-01T07:04:45;7.22;;;3.67;;
68275;SDS011;55106;51.438;-0.098;2022-08-01T07:07:10;8.20;;;3.23;;
68275;SDS011;55106;51.438;-0.098;2022-08-01T07:09:36;7.57;;;3.10;;
68275;SDS011;55106;51.438;-0.098;2022-08-01T07:12:02;7.00;;;3.28;;
68275;SDS011;55106;51.438;-0.098;2022-08-01T07:14:28;8.33;;;3.30;;
68275;SDS011;55106;51.438;-0.098;2022-08-01T07:16:53;6.43;;;3.60;;
68275;SDS011;55106;51.438;-0.098;2022-08-01T07:19:19;6.37;;;3.30;;
68275;SDS011;55106;51.438;-0.098;2022-08-01T07:21:44;7.53;;;3.37;;
68275;SDS011;55106;51.438;-0.098;2022-08-01T07:24:11;6.50;;;3.23;;
68275;SDS011;55106;51.438;-0.098;2022-08-01T07:26:38;6.07;;;3.20;;
68275;SDS011;55106;51.438;-0.098;2022-08-01T07:29:03;5.82;;;3.08;;
68275;SDS011;55106;51.438;-0.098;2022-08-01T07:31:29;8.47;;;3.37;;
68275;SDS011;55106;51.438;-0.098;2022-08-01T07:33:54;6.83;;;3.40;;
68275;SDS011;55106;51.438;-0.098;2022-08-01T07:36:20;6.80;;;3.23;;
68275;SDS011;55106;51.438;-0.098;2022-08-01T07:38:45;6.35;;;3.00;;
68275;SDS011;55106;51.438;-0.098;2022-08-01T07:41:11;6.97;;;3.50;;
68275;SDS011;55106;51.438;-0.098;2022-08-01T07:43:36;6.53;;;3.92;;
68275;SDS011;55106;51.438;-0.098;2022-08-01T07:46:03;8.30;;;3.60;;
68275;SDS011;55106;51.438;-0.098;2022-08-01T07:48:29;10.63;;;3.28;;
68275;SDS011;55106;51.438;-0.098;2022-08-01T07:50:54;7.83;;;3.83;;
68275;SDS011;55106;51.438;-0.098;2022-08-01T07:53:20;7.38;;;3.90;;
68275;SDS011;55106;51.438;-0.098;2022-08-01T07:55:46;6.53;;;3.30;;
68275;SDS011;55106;51.438;-0.098;2022-08-01T07:58:12;7.15;;;3.55;;
68275;SDS011;55106;51.438;-0.098;2022-08-01T08:00:38;6.17;;;3.50;;
68275;SDS011;55106;51.438;-0.098;2022-08-01T08:03:03;6.90;;;3.80;;
68275;SDS011;55106;51.438;-0.098;2022-08-01T08:05:29;8.63;;;3.60;;
68275;SDS011;55106;51.438;-0.098;2022-08-01T08:07:54;7.27;;;4.03;;
68275;SDS011;55106;51.438;-0.098;2022-08-01T08:10:20;7.40;;;3.47;;
68275;SDS011;55106;51.438;-0.098;2022-08-01T08:12:46;7.30;;;3.53;;
68275;SDS011;55106;51.438;-0.098;2022-08-01T08:15:11;9.43;;;4.27;;
68275;SDS011;55106;51.438;-0.098;2022-08-01T08:17:38;7.28;;;3.72;;
68275;SDS011;55106;51.438;-0.098;2022-08-01T08:20:05;8.80;;;3.70;;
68275;SDS011;55106;51.438;-0.098;2022-08-01T08:22:31;6.32;;;3.22;;
68275;SDS011;55106;51.438;-0.098;2022-08-01T08:24:57;7.43;;;3.67;;
68275;SDS011;55106;51.438;-0.098;2022-08-01T08:27:22;11.33;;;3.80;;
68275;SDS011;55106;51.438;-0.098;2022-08-01T08:29:48;7.65;;;3.50;;
68275;SDS011;55106;51.438;-0.098;2022-08-01T08:32:13;7.10;;;3.47;;
68275;SDS011;55106;51.438;-0.098;2022-08-01T08:34:39;7.23;;;3.30;;
68275;SDS011;55106;51.438;-0.098;2022-08-01T08:37:04;6.60;;;3.63;;
68275;SDS011;55106;51.438;-0.098;2022-08-01T08:39:30;6.07;;;3.20;;
68275;SDS011;55106;51.438;-0.098;2022-08-01T08:41:58;8.00;;;3.50;;
68275;SDS011;55106;51.438;-0.098;2022-08-01T08:44:27;7.50;;;3.67;;
68275;SDS011;55106;51.438;-0.098;2022-08-01T08:46:52;6.85;;;3.97;;
68275;SDS011;55106;51.438;-0.098;2022-08-01T08:49:25;8.20;;;3.75;;
68275;SDS011;55106;51.438;-0.098;2022-08-01T08:51:52;7.90;;;3.97;;
68275;SDS011;55106;51.438;-0.098;2022-08-01T08:54:22;7.17;;;4.07;;
68275;SDS011;55106;51.438;-0.098;2022-08-01T08:56:50;6.47;;;3.83;;
68275;SDS011;55106;51.438;-0.098;2022-08-01T08:59:16;7.03;;;3.92;;
68275;SDS011;55106;51.438;-0.098;2022-08-01T09:01:42;7.67;;;3.63;;
68275;SDS011;55106;51.438;-0.098;2022-08-01T09:04:08;6.78;;;3.28;;
68275;SDS011;55106;51.438;-0.098;2022-08-01T09:06:34;6.60;;;3.13;;
68275;SDS011;55106;51.438;-0.098;2022-08-01T09:09:00;8.43;;;3.33;;
68275;SDS011;55106;51.438;-0.098;2022-08-01T09:11:25;8.88;;;3.45;;
68275;SDS011;55106;51.438;-0.098;2022-08-01T09:14:11;6.90;;;2.80;;
68275;SDS011;55106;51.438;-0.098;2022-08-01T09:16:58;6.72;;;3.08;;
68275;SDS011;55106;51.438;-0.098;2022-08-01T09:19:34;7.93;;;3.10;;
68275;SDS011;55106;51.438;-0.098;2022-08-01T09:22:07;6.40;;;2.47;;
68275;SDS011;55106;51.438;-0.098;2022-08-01T09:24:37;7.85;;;2.67;;
68275;SDS011;55106;51.438;-0.098;2022-08-01T09:27:17;6.80;;;3.43;;
68275;SDS011;55106;51.438;-0.098;2022-08-01T09:29:48;7.13;;;3.00;;
68275;SDS011;55106;51.438;-0.098;2022-08-01T09:32:15;6.72;;;2.78;;
68275;SDS011;55106;51.438;-0.098;2022-08-01T09:34:40;6.33;;;2.03;;
68275;SDS011;55106;51.438;-0.098;2022-08-01T09:37:06;6.27;;;2.50;;
68275;SDS011;55106;51.438;-0.098;2022-08-01T09:39:33;6.70;;;2.58;;
68275;SDS011;55106;51.438;-0.098;2022-08-01T09:44:47;5.80;;;2.53;;
68275;SDS011;55106;51.438;-0.098;2022-08-01T09:47:22;6.28;;;2.08;;
68275;SDS011;55106;51.438;-0.098;2022-08-01T09:50:09;5.57;;;2.30;;
68275;SDS011;55106;51.438;-0.098;2022-08-01T09:52:35;4.47;;;1.80;;
68275;SDS011;55106;51.438;-0.098;2022-08-01T09:55:01;5.23;;;1.90;;
68275;SDS011;55106;51.438;-0.098;2022-08-01T09:57:29;4.88;;;1.90;;
68275;SDS011;55106;51.438;-0.098;2022-08-01T09:59:55;5.53;;;2.10;;
68275;SDS011;55106;51.438;-0.098;2022-08-01T10:02:27;6.00;;;2.00;;
68275;SDS011;55106;51.438;-0.098;2022-08-01T10:04:53;6.10;;;2.40;;
68275;SDS011;55106;51.438;-0.098;2022-08-01T10:07:19;5.65;;;2.47;;
68275;SDS011;55106;51.438;-0.098;2022-08-01T10:09:46;5.38;;;2.30;;
68275;SDS011;55106;51.438;-0.098;2022-08-01T10:12:13;5.20;;;2.27;;
68275;SDS011;55106;51.438;-0.098;2022-08-01T10:14:42;7.22;;;2.30;;
68275;SDS011;55106;51.438;-0.098;2022-08-01T10:17:10;4.93;;;2.05;;
68275;SDS011;55106;51.438;-0.098;2022-08-01T10:19:38;5.07;;;2.10;;
68275;SDS011;55106;51.438;-0.098;2022-08-01T10:22:07;8.27;;;2.10;;
68275;SDS011;55106;51.438;-0.098;2022-08-01T10:24:34;5.33;;;2.30;;
68275;SDS011;55106;51.438;-0.098;2022-08-01T10:27:02;7.07;;;2.20;;
68275;SDS011;55106;51.438;-0.098;2022-08-01T10:29:31;6.80;;;2.25;;
68275;SDS011;55106;51.438;-0.098;2022-08-01T10:32:02;7.30;;;3.38;;
68275;SDS011;55106;51.438;-0.098;2022-08-01T10:34:30;6.57;;;2.65;;
68275;SDS011;55106;51.438;-0.098;2022-08-01T10:36:56;5.37;;;2.07;;
68275;SDS011;55106;51.438;-0.098;2022-08-01T10:39:22;5.32;;;1.90;;
68275;SDS011;55106;51.438;-0.098;2022-08-01T10:41:48;4.78;;;1.60;;
68275;SDS011;55106;51.438;-0.098;2022-08-01T10:44:14;5.15;;;1.90;;
68275;SDS011;55106;51.438;-0.098;2022-08-01T10:46:42;6.68;;;2.10;;
68275;SDS011;55106;51.438;-0.098;2022-08-01T10:49:13;4.83;;;2.20;;
68275;SDS011;55106;51.438;-0.098;2022-08-01T10:51:40;5.32;;;2.17;;
68275;SDS011;55106;51.438;-0.098;2022-08-01T10:54:07;5.20;;;1.80;;
68275;SDS011;55106;51.438;-0.098;2022-08-01T10:56:49;4.85;;;2.10;;
68275;SDS011;55106;51.438;-0.098;2022-08-01T10:59:33;4.90;;;2.10;;
68275;SDS011;55106;51.438;-0.098;2022-08-01T11:02:05;5.83;;;1.70;;
68275;SDS011;55106;51.438;-0.098;2022-08-01T11:07:23;5.38;;;2.10;;
68275;SDS011;55106;51.438;-0.098;2022-08-01T11:10:04;7.00;;;2.00;;
68275;SDS011;55106;51.438;-0.098;2022-08-01T11:12:39;5.55;;;2.05;;
68275;SDS011;55106;51.438;-0.098;2022-08-01T11:20:14;5.03;;;1.95;;
68275;SDS011;55106;51.438;-0.098;2022-08-01T11:25:23;7.10;;;2.83;;
68275;SDS011;55106;51.438;-0.098;2022-08-01T11:28:17;6.15;;;2.00;;
68275;SDS011;55106;51.438;-0.098;2022-08-01T11:30:42;4.63;;;1.58;;
68275;SDS011;55106;51.438;-0.098;2022-08-01T11:33:07;4.78;;;1.50;;
68275;SDS011;55106;51.438;-0.098;2022-08-01T11:35:36;6.07;;;1.80;;
68275;SDS011;55106;51.438;-0.098;2022-08-01T11:52:10;5.35;;;1.80;;
68275;SDS011;55106;51.438;-0.098;2022-08-01T11:57:06;4.97;;;1.60;;
68275;SDS011;55106;51.438;-0.098;2022-08-01T11:59:41;4.65;;;1.77;;
68275;SDS011;55106;51.438;-0.098;2022-08-01T12:04:57;5.18;;;1.90;;
68275;SDS011;55106;51.438;-0.098;2022-08-01T12:07:29;6.60;;;2.60;;
68275;SDS011;55106;51.438;-0.098;2022-08-01T12:09:57;6.65;;;2.05;;
68275;SDS011;55106;51.438;-0.098;2022-08-01T12:12:26;5.28;;;1.30;;
68275;SDS011;55106;51.438;-0.098;2022-08-01T12:14:53;4.50;;;1.50;;
68275;SDS011;55106;51.438;-0.098;2022-08-01T12:17:20;5.55;;;1.88;;
68275;SDS011;55106;51.438;-0.098;2022-08-01T12:19:56;6.40;;;1.53;;
68275;SDS011;55106;51.438;-0.098;2022-08-01T12:22:22;4.38;;;1.60;;
68275;SDS011;55106;51.438;-0.098;2022-08-01T12:24:50;4.60;;;1.93;;
68275;SDS011;55106;51.438;-0.098;2022-08-01T12:27:26;5.15;;;1.52;;
68275;SDS011;55106;51.438;-0.098;2022-08-01T12:29:55;4.82;;;1.70;;
68275;SDS011;55106;51.438;-0.098;2022-08-01T12:32:27;6.20;;;1.65;;
68275;SDS011;55106;51.438;-0.098;2022-08-01T12:34:56;5.82;;;2.03;;
68275;SDS011;55106;51.438;-0.098;2022-08-01T12:37:25;5.60;;;1.80;;
68275;SDS011;55106;51.438;-0.098;2022-08-01T12:39:51;5.22;;;1.80;;
68275;SDS011;55106;51.438;-0.098;2022-08-01T12:42:17;5.75;;;1.92;;
68275;SDS011;55106;51.438;-0.098;2022-08-01T12:44:44;6.00;;;2.00;;
68275;SDS011;55106;51.438;-0.098;2022-08-01T12:47:12;4.72;;;1.90;;
68275;SDS011;55106;51.438;-0.098;2022-08-01T12:49:39;4.50;;;1.88;;
68275;SDS011;55106;51.438;-0.098;2022-08-01T12:52:07;5.70;;;2.20;;
68275;SDS011;55106;51.438;-0.098;2022-08-01T12:57:33;4.95;;;2.05;;
68275;SDS011;55106;51.438;-0.098;2022-08-01T13:00:31;6.78;;;2.53;;
68275;SDS011;55106;51.438;-0.098;2022-08-01T13:03:10;5.18;;;1.90;;
68275;SDS011;55106;51.438;-0.098;2022-08-01T13:05:44;6.00;;;2.23;;
68275;SDS011;55106;51.438;-0.098;2022-08-01T13:08:11;6.63;;;2.10;;
68275;SDS011;55106;51.438;-0.098;2022-08-01T13:10:38;4.93;;;1.90;;
68275;SDS011;55106;51.438;-0.098;2022-08-01T13:13:04;4.50;;;2.30;;
68275;SDS011;55106;51.438;-0.098;2022-08-01T13:15:33;5.35;;;2.00;;
68275;SDS011;55106;51.438;-0.098;2022-08-01T13:18:01;5.80;;;2.33;;
68275;SDS011;55106;51.438;-0.098;2022-08-01T13:20:50;7.45;;;2.80;;
68275;SDS011;55106;51.438;-0.098;2022-08-01T13:23:31;5.57;;;1.90;;
68275;SDS011;55106;51.438;-0.098;2022-08-01T13:25:56;5.32;;;2.15;;
68275;SDS011;55106;51.438;-0.098;2022-08-01T13:28:23;5.87;;;2.10;;
68275;SDS011;55106;51.438;-0.098;2022-08-01T13:30:53;6.15;;;2.20;;
68275;SDS011;55106;51.438;-0.098;2022-08-01T13:33:43;6.50;;;2.60;;
68275;SDS011;55106;51.438;-0.098;2022-08-01T13:36:09;5.63;;;2.60;;
68275;SDS011;55106;51.438;-0.098;2022-08-01T13:38:36;4.90;;;2.40;;
68275;SDS011;55106;51.438;-0.098;2022-08-01T13:41:20;5.32;;;2.40;;
68275;SDS011;55106;51.438;-0.098;2022-08-01T13:43:45;5.57;;;2.30;;
68275;SDS011;55106;51.438;-0.098;2022-08-01T13:46:11;5.63;;;2.20;;
68275;SDS011;55106;51.438;-0.098;2022-08-01T13:48:36;4.87;;;2.00;;
68275;SDS011;55106;51.438;-0.098;2022-08-01T13:51:02;4.73;;;2.13;;
68275;SDS011;55106;51.438;-0.098;2022-08-01T13:53:27;5.43;;;2.00;;
68275;SDS011;55106;51.438;-0.098;2022-08-01T13:55:53;5.45;;;2.05;;
68275;SDS011;55106;51.438;-0.098;2022-08-01T13:58:19;5.25;;;2.28;;
68275;SDS011;55106;51.438;-0.098;2022-08-01T14:00:44;5.07;;;2.03;;
68275;SDS011;55106;51.438;-0.098;2022-08-01T14:03:12;4.80;;;2.03;;
68275;SDS011;55106;51.438;-0.098;2022-08-01T14:05:38;5.20;;;2.47;;
68275;SDS011;55106;51.438;-0.098;2022-08-01T14:08:04;7.13;;;2.10;;
68275;SDS011;55106;51.438;-0.098;2022-08-01T14:10:30;4.93;;;2.55;;
68275;SDS011;55106;51.438;-0.098;2022-08-01T14:12:56;8.00;;;2.10;;
68275;SDS011;55106;51.438;-0.098;2022-08-01T14:15:22;7.13;;;2.10;;
68275;SDS011;55106;51.438;-0.098;2022-08-01T14:17:48;5.95;;;2.08;;
68275;SDS011;55106;51.438;-0.098;2022-08-01T14:20:14;5.10;;;2.23;;
68275;SDS011;55106;51.438;-0.098;2022-08-01T14:22:39;6.78;;;2.20;;
68275;SDS011;55106;51.438;-0.098;2022-08-01T14:25:05;5.07;;;2.63;;
68275;SDS011;55106;51.438;-0.098;2022-08-01T14:27:32;4.85;;;2.45;;
68275;SDS011;55106;51.438;-0.098;2022-08-01T14:30:01;6.07;;;2.17;;
68275;SDS011;55106;51.438;-0.098;2022-08-01T14:32:27;5.00;;;2.17;;
68275;SDS011;55106;51.438;-0.098;2022-08-01T14:34:53;5.33;;;2.00;;
68275;SDS011;55106;51.438;-0.098;2022-08-01T14:37:18;4.90;;;2.30;;
68275;SDS011;55106;51.438;-0.098;2022-08-01T14:39:44;4.73;;;2.10;;
68275;SDS011;55106;51.438;-0.098;2022-08-01T14:42:09;5.20;;;2.10;;
68275;SDS011;55106;51.438;-0.098;2022-08-01T14:44:34;5.83;;;2.47;;
68275;SDS011;55106;51.438;-0.098;2022-08-01T14:47:00;5.27;;;2.10;;
68275;SDS011;55106;51.438;-0.098;2022-08-01T14:49:25;5.47;;;2.33;;
68275;SDS011;55106;51.438;-0.098;2022-08-01T14:51:51;5.63;;;2.10;;
68275;SDS011;55106;51.438;-0.098;2022-08-01T14:54:16;4.70;;;2.08;;
68275;SDS011;55106;51.438;-0.098;2022-08-01T14:56:41;6.33;;;1.93;;
68275;SDS011;55106;51.438;-0.098;2022-08-01T14:59:07;6.90;;;2.40;;
68275;SDS011;55106;51.438;-0.098;2022-08-01T15:01:32;5.67;;;2.00;;
68275;SDS011;55106;51.438;-0.098;2022-08-01T15:03:58;5.67;;;2.13;;
68275;SDS011;55106;51.438;-0.098;2022-08-01T15:06:23;6.38;;;1.98;;
68275;SDS011;55106;51.438;-0.098;2022-08-01T15:08:48;6.63;;;2.10;;
68275;SDS011;55106;51.438;-0.098;2022-08-01T15:11:14;5.10;;;2.20;;
68275;SDS011;55106;51.438;-0.098;2022-08-01T15:13:39;5.00;;;2.40;;
68275;SDS011;55106;51.438;-0.098;2022-08-01T15:16:05;4.47;;;1.80;;
68275;SDS011;55106;51.438;-0.098;2022-08-01T15:18:30;4.57;;;2.00;;
68275;SDS011;55106;51.438;-0.098;2022-08-01T15:20:55;5.53;;;2.20;;
68275;SDS011;55106;51.438;-0.098;2022-08-01T15:23:22;4.70;;;2.00;;